Create Tblcommutelog Verified Points Advance Search
| # | Trip ID | Id Commuter | Trip Date | Trip Num | Current Lat | Current Lng | Delta Distance | Current Time | Activity | Activity Confidence | Current Speed | |
|---|---|---|---|---|---|---|---|---|---|---|---|---|
| 70441 | 251031_788077_16656633_1638 | 788077 | (not set) | (not set) | 38.837831263949 | -77.431914930906 | 35.8682 | 2025-10-31 17:22:27 | unknown | 100 | 8.6367984836428 | |
| 70442 | 251031_788077_16656633_1637 | 788077 | (not set) | (not set) | 38.837831263949 | -77.431914930906 | 35.8682 | 2025-10-31 17:22:27 | unknown | 100 | 8.6367984836428 | |
| 70443 | 251031_786113_16654392_1638 | 786113 | (not set) | (not set) | 38.837810231919 | -77.431919624936 | 35.5806 | 2025-10-31 17:22:27 | in_vehicle | 100 | 8.6144465206934 | |
| 70444 | 251031_786113_16654392_1638 | 786113 | (not set) | (not set) | 38.837810231919 | -77.431919624936 | 35.5806 | 2025-10-31 17:22:27 | in_vehicle | 100 | 8.6144465206934 | |
| 70445 | 251031_788423_16657042_1636 | 788423 | (not set) | (not set) | 38.837707983333 | -77.431983383333 | 35.7489 | 2025-10-31 17:22:27 | in_vehicle | 100 | 8.4624531726376 | |
| 70446 | 251031_785147_16653236_1638 | 785147 | (not set) | (not set) | 38.97501705 | -77.8032819 | 23.1482 | 2025-10-31 17:22:28 | in_vehicle | 100 | 9.6381664237753 | |
| 70447 | 251031_784389_16652315_1631 | 784389 | (not set) | (not set) | 38.950572151496 | -77.347644917838 | 20.6932 | 2025-10-31 17:22:29 | in_vehicle | 100 | 11.091044015485 | |
| 70448 | 251031_785777_16653968_1632 | 785777 | (not set) | (not set) | 39.298239683141 | -76.569768526083 | 13.3736 | 2025-10-31 17:22:30 | in_vehicle | 100 | 5.534346026268 | |
| 70449 | 251031_786839_16655227_1603 | 786839 | (not set) | (not set) | 39.4854021038 | -76.251498521176 | 30.5013 | 2025-10-31 17:22:30 | in_vehicle | 100 | 0 | |
| 70450 | 251031_789119_16657902_1610 | 789119 | (not set) | (not set) | 38.933780923371 | -77.044284642183 | 2.7361 | 2025-10-31 17:22:31 | on_bicycle | 100 | 0.91196008833496 | |
| 70451 | 251031_783292_16651014_1604 | 783292 | (not set) | (not set) | 38.883697076594 | -77.149680547797 | 18.3326 | 2025-10-31 17:22:32 | in_vehicle | 100 | 9.7812189866514 | |
| 70452 | 251031_783292_16651014_1604 | 783292 | (not set) | (not set) | 38.883697076594 | -77.149680547797 | 18.3326 | 2025-10-31 17:22:32 | in_vehicle | 100 | 9.7812189866514 | |
| 70453 | 251118_765803_16632711_1648 | 765803 | (not set) | (not set) | 38.894511029805 | -77.022438417761 | 0.4094 | 2025-11-18 16:50:58 | on_foot | 100 | -0.44703925898772 | |
| 70454 | 251118_789579_16658461_1504 | 789579 | (not set) | (not set) | 39.05300355 | -77.547530283333 | 38.3093 | 2025-11-18 16:51:40 | still | 33 | 8.2791670764527 | |
| 70455 | 251118_781336_16649009_1603 | 781336 | (not set) | (not set) | 38.9623157401 | -77.452184753565 | 25.5108 | 2025-11-18 16:52:16 | in_vehicle | 100 | 7.6980160397686 | |
| 70456 | 251118_781336_16649009_1603 | 781336 | (not set) | (not set) | 38.969874666109 | -77.449358543453 | 26.0763 | 2025-11-18 16:52:44 | in_vehicle | 100 | 10.398133164054 | |
| 70457 | 251118_787145_16655582_1610 | 787145 | (not set) | (not set) | 38.800902718246 | -77.119999544989 | 10.4628 | 2025-11-18 16:53:07 | in_vehicle | 100 | -0.44703925898772 | |
| 70458 | 251118_775339_16651697_1646 | 775339 | (not set) | (not set) | 38.896213544473 | -77.043610150753 | 0.41 | 2025-11-18 16:53:31 | on_bicycle | 100 | 0.6884404588411 | |
| 70459 | 251118_787177_16655624_1649 | 787177 | (not set) | (not set) | 39.280758254265 | -76.562037433879 | 0.6907 | 2025-11-18 16:54:11 | unknown | 100 | 7.8500093878244 | |
| 70460 | 251118_788077_16656633_1601 | 788077 | (not set) | (not set) | 38.83560079481 | -77.448816654859 | 34.8636 | 2025-11-18 16:54:29 | unknown | 100 | 3.567373286722 |